Time;durP1;ratioP1;P1;durP2;ratioP2;P2;SDS_P1;SDS_P2;PMS_P1;PMS_P2;Temp;Humidity;BMP_temperature;BMP_pressure;BME280_temperature;BME280_humidity;BME280_pressure;Samples;Min_cycle;Max_cycle;Signal;HPM_P1;HPM_P2
2023/03/09 00:01:46;;;;;;;4.80;3.47;;;;;;;10.10;68.21;97435.34;5032298;28;20244;-78
2023/03/09 00:04:14;;;;;;;6.47;3.40;;;;;;;10.10;68.91;97448.72;5008112;28;20187;-78
2023/03/09 00:06:47;;;;;;;4.37;3.33;;;;;;;10.12;68.77;97437.75;5016650;28;20740;-78
2023/03/09 00:09:19;;;;;;;4.70;3.70;;;;;;;10.08;69.42;97442.81;5033957;28;20192;-79
2023/03/09 00:11:47;;;;;;;5.90;3.90;;;;;;;9.95;69.20;97435.34;5035313;28;20684;-78
2023/03/09 00:14:21;;;;;;;4.60;3.80;;;;;;;9.88;69.24;97429.50;5017923;28;20275;-77
2023/03/09 00:16:48;;;;;;;5.13;4.13;;;;;;;9.86;69.20;97423.59;5017322;28;20624;-78
2023/03/09 00:19:26;;;;;;;4.93;3.70;;;;;;;9.97;68.92;97411.81;5016866;28;20203;-78
2023/03/09 00:21:55;;;;;;;6.07;4.03;;;;;;;10.05;68.27;97419.31;5032672;28;20281;-77
2023/03/09 00:24:30;;;;;;;6.07;3.90;;;;;;;10.00;68.28;97410.47;5001215;28;20198;-79
2023/03/09 00:27:03;;;;;;;5.30;4.10;;;;;;;10.04;68.18;97408.84;5034248;28;20197;-79
2023/03/09 00:29:30;;;;;;;4.57;4.00;;;;;;;10.06;68.20;97388.81;5001462;28;20221;-79
2023/03/09 00:31:58;;;;;;;4.70;3.97;;;;;;;10.12;67.94;97371.66;5034679;28;20194;-78
2023/03/09 00:34:24;;;;;;;5.63;4.17;;;;;;;10.01;68.36;97378.09;5017066;28;20213;-78
2023/03/09 00:36:53;;;;;;;5.10;4.03;;;;;;;10.13;68.28;97375.13;5033636;28;20285;-78
2023/03/09 00:39:20;;;;;;;6.47;4.20;;;;;;;9.99;68.32;97364.19;5033444;28;20183;-78
2023/03/09 00:41:47;;;;;;;5.20;4.10;;;;;;;9.99;68.59;97368.72;5042032;28;20186;-78
2023/03/09 00:44:19;;;;;;;4.90;4.40;;;;;;;9.86;68.86;97354.06;5036021;28;20388;-78
2023/03/09 00:46:47;;;;;;;5.07;4.20;;;;;;;9.86;68.93;97354.06;5033497;28;20602;-79
2023/03/09 00:49:24;;;;;;;5.57;3.90;;;;;;;9.77;69.21;97350.31;4992526;28;20207;-79
2023/03/09 00:51:55;;;;;;;6.97;4.20;;;;;;;9.60;69.77;97337.25;5032526;28;20701;-78
2023/03/09 00:54:24;;;;;;;5.47;4.40;;;;;;;9.54;69.97;97330.28;5031329;28;20244;-78
2023/03/09 00:56:52;;;;;;;6.37;4.53;;;;;;;9.38;70.93;97312.63;5032498;28;20210;-79
2023/03/09 00:59:20;;;;;;;4.77;4.13;;;;;;;9.33;70.92;97296.63;5033271;28;20204;-77
2023/03/09 01:01:49;;;;;;;5.37;3.80;;;;;;;9.26;71.13;97288.88;5016166;28;20195;-79
2023/03/09 01:04:22;;;;;;;5.67;4.00;;;;;;;9.14;71.20;97279.53;5028158;28;20194;-79
2023/03/09 01:06:58;;;;;;;5.67;4.40;;;;;;;9.13;71.42;97280.59;5032672;28;20222;-79
2023/03/09 01:09:29;;;;;;;6.33;4.67;;;;;;;9.05;71.98;97273.13;5030275;28;20240;-78
2023/03/09 01:11:58;;;;;;;6.03;3.97;;;;;;;8.90;72.46;97283.78;5046785;28;20674;-78
2023/03/09 01:14:27;;;;;;;5.83;4.30;;;;;;;8.87;72.94;97300.31;5032536;28;20214;-77
2023/03/09 01:16:54;;;;;;;6.07;4.17;;;;;;;8.82;73.38;97283.22;5032357;28;20194;-78
2023/03/09 01:19:20;;;;;;;5.53;4.00;;;;;;;8.80;73.35;97277.38;5027941;28;20186;-79
2023/03/09 01:21:47;;;;;;;4.83;3.90;;;;;;;8.73;73.31;97292.00;5008605;28;20281;-77
2023/03/09 01:24:14;;;;;;;4.30;3.90;;;;;;;8.69;73.95;97294.41;5033456;28;20277;-78
2023/03/09 01:27:09;;;;;;;6.63;3.83;;;;;;;8.72;73.94;97299.25;5006741;28;20210;-77
2023/03/09 01:29:40;;;;;;;5.47;4.00;;;;;;;8.76;73.52;97294.97;5031960;28;20194;-78
2023/03/09 01:32:09;;;;;;;4.90;3.83;;;;;;;8.71;73.69;97296.84;5014331;28;20195;-79
2023/03/09 01:34:38;;;;;;;4.23;3.63;;;;;;;8.67;74.06;97299.25;5016364;28;20212;-78
2023/03/09 01:37:06;;;;;;;4.57;3.93;;;;;;;8.72;73.53;97291.25;5032692;28;20248;-77
2023/03/09 01:39:38;;;;;;;5.10;3.70;;;;;;;8.74;73.50;97301.63;5032189;28;20269;-80
2023/03/09 01:42:05;;;;;;;5.30;3.90;;;;;;;8.88;73.24;97299.25;5032857;28;20201;-78
2023/03/09 01:44:31;;;;;;;5.07;3.80;;;;;;;8.99;72.89;97269.63;5029587;28;20186;-78
2023/03/09 01:47:01;;;;;;;4.03;3.60;;;;;;;9.10;72.15;97278.44;5029850;28;20700;-78
2023/03/09 01:49:46;;;;;;;4.70;3.40;;;;;;;9.05;72.26;97257.88;5032304;28;20186;-79
2023/03/09 01:52:26;;;;;;;3.73;3.17;;;;;;;9.30;71.71;97254.41;5015443;28;20202;-78
2023/03/09 01:55:03;;;;;;;4.60;3.40;;;;;;;9.36;71.59;97248.00;5015665;28;20240;-78
2023/03/09 01:57:42;;;;;;;4.30;3.60;;;;;;;9.30;71.96;97241.03;5015528;28;20197;-78
2023/03/09 02:00:12;;;;;;;4.10;3.70;;;;;;;9.23;72.04;97236.00;5015257;28;20202;-78
2023/03/09 02:02:54;;;;;;;8.00;3.87;;;;;;;9.21;72.00;97221.28;5029827;28;20209;-78
2023/03/09 02:05:25;;;;;;;4.73;3.47;;;;;;;9.28;71.55;97235.97;5015068;28;20210;-79
2023/03/09 02:07:56;;;;;;;5.07;3.80;;;;;;;9.31;71.43;97242.66;5032203;28;20217;-79
2023/03/09 02:10:32;;;;;;;3.87;3.47;;;;;;;9.24;71.43;97228.75;5031520;28;20209;-79
2023/03/09 02:13:08;;;;;;;5.40;3.77;;;;;;;9.27;71.37;97233.56;5030276;28;20257;-80
2023/03/09 02:15:35;;;;;;;4.57;3.70;;;;;;;9.25;71.51;97233.03;5030831;28;20221;-80
2023/03/09 02:18:07;;;;;;;5.03;3.77;;;;;;;9.24;71.33;97234.91;5031419;28;20702;-78
2023/03/09 02:20:37;;;;;;;4.20;3.43;;;;;;;9.22;71.64;97229.03;5014862;28;20192;-78
2023/03/09 02:23:11;;;;;;;4.57;4.00;;;;;;;9.09;72.06;97226.91;5030692;28;20202;-80
2023/03/09 02:26:09;;;;;;;6.90;4.23;;;;;;;9.10;72.13;97228.50;5029608;28;20686;-78
2023/03/09 02:28:38;;;;;;;5.30;3.73;;;;;;;9.11;71.84;97231.97;5031074;28;20190;-78
2023/03/09 02:31:09;;;;;;;5.23;3.80;;;;;;;9.10;71.97;97225.81;5031400;28;20236;-78
2023/03/09 02:33:38;;;;;;;6.53;4.50;;;;;;;9.19;71.76;97216.19;5015309;28;20288;-79
2023/03/09 02:36:05;;;;;;;6.17;4.50;;;;;;;9.11;72.37;97224.75;5020505;28;20230;-79
2023/03/09 02:38:36;;;;;;;7.63;4.37;;;;;;;9.11;72.49;97222.09;5031278;28;20202;-78
2023/03/09 02:41:09;;;;;;;6.33;4.50;;;;;;;9.10;72.26;97200.97;5033897;28;20201;-79
2023/03/09 02:43:42;;;;;;;4.77;4.30;;;;;;;9.01;73.03;97227.44;5030559;28;20218;-79
2023/03/09 02:46:10;;;;;;;6.97;4.67;;;;;;;9.02;72.94;97188.16;5027847;28;20541;-80
2023/03/09 02:48:40;;;;;;;5.83;4.80;;;;;;;8.99;73.17;97194.88;5013353;28;20198;-80
2023/03/09 02:51:07;;;;;;;4.93;4.40;;;;;;;9.07;73.22;97209.53;5030545;28;20205;-78
2023/03/09 02:53:35;;;;;;;5.10;4.37;;;;;;;9.16;72.91;97197.25;5024030;28;20186;-79
2023/03/09 02:56:05;;;;;;;4.57;3.80;;;;;;;9.10;73.22;97207.13;5008084;28;20226;-80
2023/03/09 02:58:33;;;;;;;5.37;4.20;;;;;;;9.08;73.31;97209.28;5030526;28;20226;-79
2023/03/09 03:01:02;;;;;;;4.60;4.07;;;;;;;9.09;73.28;97189.50;5031804;28;20203;-81
2023/03/09 03:03:32;;;;;;;5.10;4.27;;;;;;;9.17;72.89;97202.31;5031089;28;20271;-79
2023/03/09 03:06:02;;;;;;;6.23;4.70;;;;;;;9.36;72.64;97199.88;5031083;28;20655;-78
2023/03/09 03:08:30;;;;;;;5.60;4.50;;;;;;;9.28;72.83;97200.44;5030963;28;20733;-78
2023/03/09 03:11:10;;;;;;;6.33;4.53;;;;;;;9.19;72.90;97186.03;5031071;28;20312;-79
2023/03/09 03:13:39;;;;;;;5.63;4.73;;;;;;;9.31;72.64;97197.22;5032112;28;20221;-78
2023/03/09 03:16:08;;;;;;;4.70;4.20;;;;;;;9.24;72.87;97199.34;5014680;28;20716;-78
2023/03/09 03:18:36;;;;;;;5.03;4.07;;;;;;;9.44;72.52;97203.88;4998372;28;20281;-78
2023/03/09 03:21:06;;;;;;;5.70;4.80;;;;;;;9.34;72.51;97194.00;5008026;28;20191;-78
2023/03/09 03:23:36;;;;;;;5.87;4.07;;;;;;;9.29;72.79;97199.34;5030760;28;20194;-79
2023/03/09 03:26:06;;;;;;;4.60;4.07;;;;;;;9.46;72.20;97201.75;5030903;28;20194;-79
2023/03/09 03:28:34;;;;;;;5.07;4.27;;;;;;;9.46;71.92;97205.22;5014590;28;20194;-78
2023/03/09 03:31:07;;;;;;;5.67;4.00;;;;;;;9.45;72.20;97211.63;5030698;28;20194;-79
2023/03/09 03:33:38;;;;;;;5.57;4.20;;;;;;;9.58;71.69;97212.94;5030665;28;20194;-78
2023/03/09 03:36:07;;;;;;;5.20;3.80;;;;;;;9.65;71.51;97227.63;5010811;28;20211;-78
2023/03/09 03:38:42;;;;;;;4.60;3.83;;;;;;;9.58;71.64;97223.63;5031782;28;20209;-78
2023/03/09 03:41:12;;;;;;;6.03;3.90;;;;;;;9.55;71.97;97232.19;5014500;28;20584;-80
2023/03/09 03:43:48;;;;;;;6.30;4.47;;;;;;;9.56;71.52;97225.78;5000687;28;20204;-78
2023/03/09 03:46:15;;;;;;;6.10;4.20;;;;;;;9.50;71.87;97221.50;5030128;28;20257;-80
2023/03/09 03:48:42;;;;;;;4.93;3.97;;;;;;;9.55;71.85;97210.81;5030205;28;20229;-78
2023/03/09 03:51:14;;;;;;;5.43;3.93;;;;;;;9.69;71.91;97227.88;5014956;28;20198;-78
2023/03/09 03:53:44;;;;;;;4.60;4.10;;;;;;;9.68;71.51;97202.22;5030268;28;20271;-78
2023/03/09 03:56:12;;;;;;;4.97;4.30;;;;;;;9.61;71.27;97197.13;5033489;28;20690;-79
2023/03/09 03:58:40;;;;;;;5.67;4.63;;;;;;;9.72;71.59;97206.75;5033971;28;20260;-78
2023/03/09 04:01:09;;;;;;;5.27;4.07;;;;;;;9.70;71.69;97219.56;5002304;28;20256;-79
2023/03/09 04:03:36;;;;;;;6.03;4.40;;;;;;;9.71;71.36;97212.34;5034289;28;20190;-77
2023/03/09 04:06:06;;;;;;;4.47;4.07;;;;;;;9.77;71.23;97200.56;5033823;28;20288;-77
2023/03/09 04:08:35;;;;;;;6.23;4.30;;;;;;;9.78;71.19;97198.69;5033875;28;20217;-77
2023/03/09 04:11:06;;;;;;;5.97;4.83;;;;;;;9.85;71.31;97199.19;5017860;28;20677;-78
2023/03/09 04:13:35;;;;;;;7.63;5.20;;;;;;;9.88;71.36;97207.50;5033801;28;20619;-79
2023/03/09 04:16:02;;;;;;;5.53;4.83;;;;;;;10.03;71.63;97218.13;5035034;28;20211;-80
2023/03/09 04:18:29;;;;;;;5.43;4.23;;;;;;;10.04;71.25;97216.25;5034966;28;20610;-77
2023/03/09 04:20:56;;;;;;;5.60;4.80;;;;;;;9.99;71.44;97219.75;5033691;28;20198;-79
2023/03/09 04:23:30;;;;;;;5.37;4.33;;;;;;;9.97;71.56;97218.44;5033789;28;20209;-79
2023/03/09 04:26:03;;;;;;;6.23;4.33;;;;;;;9.93;71.87;97228.88;5033713;28;20214;-78
2023/03/09 04:28:45;;;;;;;6.50;4.50;;;;;;;9.79;72.14;97219.84;5018600;28;20205;-78
2023/03/09 04:31:16;;;;;;;6.23;4.83;;;;;;;9.96;71.55;97214.16;5018138;28;20201;-79
2023/03/09 04:33:51;;;;;;;5.87;5.00;;;;;;;9.93;71.79;97209.34;5017369;28;20202;-79
2023/03/09 04:36:21;;;;;;;8.30;5.90;;;;;;;9.81;72.06;97217.66;5033105;28;20725;-79
2023/03/09 04:38:48;;;;;;;5.93;5.30;;;;;;;9.83;72.03;97201.38;5048469;28;20206;-79
2023/03/09 04:41:18;;;;;;;5.53;4.50;;;;;;;9.87;71.72;97197.06;5017537;28;20210;-79
2023/03/09 04:44:00;;;;;;;7.57;5.20;;;;;;;9.85;71.68;97199.19;5031051;28;20235;-79
2023/03/09 04:46:27;;;;;;;6.80;4.57;;;;;;;9.78;71.93;97207.53;5034555;28;20240;-78
2023/03/09 04:49:02;;;;;;;5.20;4.70;;;;;;;9.82;71.83;97207.78;5033189;28;20201;-77
2023/03/09 04:51:29;;;;;;;5.53;4.60;;;;;;;9.87;71.70;97205.09;5016978;28;20205;-78
2023/03/09 04:53:58;;;;;;;5.57;4.27;;;;;;;9.92;71.85;97215.78;5032992;28;20197;-78
2023/03/09 04:56:27;;;;;;;5.97;4.27;;;;;;;9.83;72.14;97218.22;5034702;28;20210;-77
2023/03/09 04:59:00;;;;;;;6.37;4.07;;;;;;;9.79;72.51;97214.50;5017403;28;20197;-78
2023/03/09 05:01:30;;;;;;;5.27;4.40;;;;;;;9.61;72.90;97213.19;5032984;28;20736;-78
2023/03/09 05:04:00;;;;;;;7.00;4.50;;;;;;;9.52;73.15;97206.78;5003712;28;20209;-78
2023/03/09 05:06:34;;;;;;;7.13;4.40;;;;;;;9.49;72.91;97206.53;5032734;28;20226;-79
2023/03/09 05:09:06;;;;;;;5.23;4.73;;;;;;;9.40;73.50;97192.94;5017505;28;20605;-79
2023/03/09 05:11:37;;;;;;;4.97;4.53;;;;;;;9.41;72.99;97186.53;5017559;28;20264;-78
2023/03/09 05:14:07;;;;;;;5.23;4.53;;;;;;;9.35;72.88;97190.25;5034054;28;20234;-78
2023/03/09 05:16:37;;;;;;;4.80;4.30;;;;;;;9.37;72.83;97198.81;5032931;28;20214;-78
2023/03/09 05:19:11;;;;;;;4.83;4.37;;;;;;;9.34;72.73;97199.34;5001324;28;20202;-78
2023/03/09 05:21:43;;;;;;;5.13;4.40;;;;;;;9.40;72.92;97184.91;5032807;28;20229;-79
2023/03/09 05:24:16;;;;;;;5.07;4.20;;;;;;;9.47;72.44;97181.97;5031052;28;20190;-79
2023/03/09 05:26:43;;;;;;;6.03;4.80;;;;;;;9.45;72.38;97189.44;5033652;28;20202;-79
2023/03/09 05:29:12;;;;;;;8.40;6.43;;;;;;;9.44;72.87;97177.16;5032204;28;20212;-79
2023/03/09 05:31:40;;;;;;;18.60;13.37;;;;;;;9.51;72.75;97175.81;5030059;28;20301;-79
2023/03/09 05:34:12;;;;;;;9.57;8.03;;;;;;;9.48;72.70;97183.53;5030256;28;20206;-78
2023/03/09 05:36:40;;;;;;;10.03;9.00;;;;;;;9.56;72.80;97189.16;5031930;28;20218;-80
2023/03/09 05:39:12;;;;;;;6.30;5.70;;;;;;;9.68;72.44;97200.34;5030647;28;20198;-79
2023/03/09 05:41:41;;;;;;;8.30;5.07;;;;;;;9.74;72.25;97193.09;5030472;28;20198;-80
2023/03/09 05:44:22;;;;;;;5.43;4.40;;;;;;;9.84;71.99;97219.81;5028374;28;20194;-79
2023/03/09 05:46:50;;;;;;;5.57;4.00;;;;;;;9.88;71.93;97241.47;5026701;28;20251;-80
2023/03/09 05:49:20;;;;;;;6.33;4.50;;;;;;;9.94;72.33;97253.72;5030417;28;20197;-79
2023/03/09 05:51:49;;;;;;;5.53;4.17;;;;;;;10.03;72.02;97268.16;5030184;28;20572;-80
2023/03/09 05:54:18;;;;;;;7.97;7.10;;;;;;;10.08;71.94;97276.16;5015879;28;20210;-79
2023/03/09 05:56:46;;;;;;;8.33;4.80;;;;;;;10.23;72.49;97312.78;5031347;28;20222;-79
2023/03/09 05:59:16;;;;;;;5.73;4.50;;;;;;;10.36;72.22;97323.72;5015358;28;20639;-80
2023/03/09 06:01:43;;;;;;;8.60;5.07;;;;;;;10.34;71.98;97320.53;5031445;28;20225;-80
2023/03/09 06:04:20;;;;;;;7.87;4.80;;;;;;;10.35;73.10;97326.69;5029330;28;20674;-79
2023/03/09 06:06:56;;;;;;;6.13;4.67;;;;;;;10.27;73.63;97328.03;5015961;28;20690;-82
2023/03/09 06:09:28;;;;;;;6.33;4.53;;;;;;;10.18;72.81;97320.84;5031250;28;20748;-78
2023/03/09 06:12:00;;;;;;;5.63;4.30;;;;;;;10.17;72.57;97327.28;5030722;28;20693;-80
2023/03/09 06:14:27;;;;;;;8.60;4.73;;;;;;;10.18;72.98;97358.28;5031524;28;20225;-79
2023/03/09 06:16:59;;;;;;;6.93;4.77;;;;;;;10.27;72.66;97349.44;5031368;28;20222;-79
2023/03/09 06:19:29;;;;;;;5.83;4.80;;;;;;;10.16;72.67;97350.56;5031296;28;20198;-79
2023/03/09 06:21:58;;;;;;;5.73;4.60;;;;;;;10.03;73.24;97345.75;5015059;28;20198;-80
2023/03/09 06:24:25;;;;;;;5.30;4.67;;;;;;;10.05;72.93;97332.88;5029967;28;20201;-79
2023/03/09 06:26:54;;;;;;;5.87;4.60;;;;;;;10.26;72.62;97331.81;5008404;28;20309;-77
2023/03/09 06:29:29;;;;;;;6.63;4.57;;;;;;;10.38;72.40;97323.44;5013373;28;20205;-78
2023/03/09 06:31:56;;;;;;;5.90;5.10;;;;;;;10.60;71.72;97305.13;5056492;28;20669;-80
2023/03/09 06:34:23;;;;;;;6.33;4.70;;;;;;;10.70;71.77;97309.63;5024713;28;20189;-79
2023/03/09 06:36:50;;;;;;;6.47;4.33;;;;;;;10.77;71.86;97300.25;5036521;28;20760;-79
2023/03/09 06:39:18;;;;;;;4.90;4.50;;;;;;;10.93;71.55;97303.59;5031109;28;20182;-78
2023/03/09 06:41:47;;;;;;;5.87;4.53;;;;;;;11.21;71.15;97294.03;5016721;28;20709;-78
2023/03/09 06:44:24;;;;;;;6.23;4.63;;;;;;;11.52;69.74;97297.28;5030721;28;20206;-80
2023/03/09 06:46:52;;;;;;;7.40;5.77;;;;;;;11.81;69.51;97298.09;5015029;28;20210;-77
2023/03/09 06:49:24;;;;;;;8.73;6.00;;;;;;;12.03;68.43;97314.50;5029886;28;20208;-78
2023/03/09 06:51:52;;;;;;;6.33;4.70;;;;;;;12.18;67.98;97318.91;5032584;28;20953;-78
2023/03/09 06:54:22;;;;;;;7.47;4.27;;;;;;;12.33;67.13;97327.59;5035535;28;20276;-78
2023/03/09 06:57:10;;;;;;;4.50;4.10;;;;;;;12.54;66.73;97327.34;5024553;28;20304;-79
2023/03/09 06:59:38;;;;;;;4.83;4.00;;;;;;;12.78;66.38;97320.06;5014270;28;20251;-78
2023/03/09 07:02:07;;;;;;;4.67;4.00;;;;;;;13.03;65.79;97314.31;5012644;28;20189;-77
2023/03/09 07:04:41;;;;;;;6.47;4.00;;;;;;;13.34;65.21;97325.47;5029399;28;20194;-79
2023/03/09 07:07:10;;;;;;;4.90;4.40;;;;;;;13.51;64.92;97320.34;5029847;28;20238;-79
2023/03/09 07:09:37;;;;;;;5.17;4.50;;;;;;;13.70;64.32;97320.28;5031206;28;20197;-78
2023/03/09 07:12:04;;;;;;;5.50;4.67;;;;;;;13.68;64.19;97317.09;5028064;28;20601;-78
2023/03/09 07:14:34;;;;;;;4.43;4.03;;;;;;;13.86;64.27;97339.66;5013313;28;20301;-78
2023/03/09 07:17:00;;;;;;;5.27;4.40;;;;;;;14.03;63.48;97332.63;5031600;28;20218;-79
2023/03/09 07:19:30;;;;;;;5.80;4.83;;;;;;;14.33;62.74;97325.06;5032094;28;20187;-79
2023/03/09 07:21:57;;;;;;;5.83;4.40;;;;;;;14.55;62.55;97335.97;5031672;28;20655;-78
2023/03/09 07:24:26;;;;;;;4.63;4.10;;;;;;;14.86;61.73;97341.53;5030761;28;20211;-79
2023/03/09 07:26:57;;;;;;;4.50;4.10;;;;;;;14.89;61.47;97324.72;5030543;28;20208;-78
2023/03/09 07:29:25;;;;;;;6.67;4.27;;;;;;;14.83;61.88;97336.75;5032078;28;20193;-79
2023/03/09 07:31:52;;;;;;;5.97;4.80;;;;;;;14.74;61.73;97344.75;5035777;28;20204;-80
2023/03/09 07:34:21;;;;;;;4.73;4.20;;;;;;;14.74;61.52;97347.44;5029098;28;20682;-79
2023/03/09 07:36:48;;;;;;;5.07;3.97;;;;;;;14.73;62.04;97358.53;5035538;28;20315;-79
2023/03/09 07:39:15;;;;;;;6.30;4.30;;;;;;;14.77;61.86;97363.00;5034145;28;20202;-79
2023/03/09 07:41:46;;;;;;;6.80;4.13;;;;;;;14.99;61.16;97356.88;5034811;28;20242;-78
2023/03/09 07:44:13;;;;;;;8.50;7.03;;;;;;;15.07;61.04;97349.97;5035107;28;21347;-78
2023/03/09 07:46:41;;;;;;;16.40;13.50;;;;;;;15.01;60.85;97356.56;5035459;28;20196;-78
2023/03/09 07:49:14;;;;;;;8.13;6.03;;;;;;;15.16;60.65;97356.25;5034820;28;20197;-78
2023/03/09 07:51:41;;;;;;;7.13;4.60;;;;;;;15.35;60.40;97357.66;5035196;28;20199;-78
2023/03/09 07:54:15;;;;;;;5.10;4.60;;;;;;;15.28;60.76;97375.38;5034734;28;20726;-79
2023/03/09 07:56:43;;;;;;;5.30;4.70;;;;;;;15.11;60.69;97397.63;5035307;28;20198;-79
2023/03/09 07:59:15;;;;;;;5.47;4.20;;;;;;;15.05;60.74;97406.91;5027231;28;20419;-78
2023/03/09 08:01:42;;;;;;;5.60;3.87;;;;;;;14.94;61.25;97425.19;5035467;28;20194;-78
2023/03/09 08:04:09;;;;;;;5.57;3.90;;;;;;;14.87;61.77;97410.53;5035194;28;20204;-78
2023/03/09 08:06:39;;;;;;;5.47;4.20;;;;;;;15.02;62.28;97391.34;5017824;28;20283;-78
2023/03/09 08:09:12;;;;;;;4.57;4.17;;;;;;;15.22;64.23;97382.78;5017901;28;20198;-79
2023/03/09 08:11:41;;;;;;;6.03;4.40;;;;;;;15.27;65.95;97395.38;5033945;28;20196;-79
2023/03/09 08:14:11;;;;;;;6.80;4.30;;;;;;;15.28;65.32;97407.75;5034578;28;20226;-79
2023/03/09 08:16:38;;;;;;;4.93;4.27;;;;;;;15.29;64.48;97396.69;5034886;28;20217;-78
2023/03/09 08:19:05;;;;;;;7.40;4.90;;;;;;;15.42;64.45;97400.44;5034847;28;20194;-78
2023/03/09 08:21:34;;;;;;;6.87;4.70;;;;;;;15.55;64.21;97407.72;5034830;28;20187;-78
2023/03/09 08:24:07;;;;;;;6.30;4.57;;;;;;;15.76;64.26;97397.25;5033631;28;20201;-79
2023/03/09 08:26:34;;;;;;;5.73;4.60;;;;;;;15.81;64.79;97399.84;5035086;28;20269;-79
2023/03/09 08:29:01;;;;;;;6.10;5.10;;;;;;;15.91;64.41;97399.56;5035335;28;20314;-79
2023/03/09 08:31:34;;;;;;;4.57;4.17;;;;;;;16.09;63.63;97397.78;5033391;28;20189;-79
2023/03/09 08:34:02;;;;;;;5.73;5.13;;;;;;;16.07;62.02;97402.69;5033147;28;20228;-79
2023/03/09 08:36:32;;;;;;;8.43;6.33;;;;;;;16.24;61.45;97391.97;5029792;28;20214;-79
2023/03/09 08:39:01;;;;;;;7.97;6.20;;;;;;;16.64;60.42;97398.25;5030489;28;20206;-79
2023/03/09 08:41:43;;;;;;;6.83;5.20;;;;;;;17.04;58.97;97405.19;5035065;28;20281;-79
2023/03/09 08:44:09;;;;;;;7.50;6.80;;;;;;;17.21;58.46;97407.16;5034124;28;20203;-79
2023/03/09 08:46:36;;;;;;;6.70;5.20;;;;;;;17.47;58.37;97410.69;5034091;28;20651;-78
2023/03/09 08:49:03;;;;;;;4.50;4.10;;;;;;;17.91;58.23;97414.22;5034506;28;20720;-80
2023/03/09 08:51:30;;;;;;;4.87;4.00;;;;;;;18.31;57.57;97425.63;5034104;28;20286;-79
2023/03/09 08:53:58;;;;;;;5.07;3.50;;;;;;;18.53;56.50;97421.88;5034090;28;20190;-78
2023/03/09 08:56:26;;;;;;;3.63;2.53;;;;;;;18.54;55.68;97435.16;5035518;28;20296;-78
2023/03/09 08:58:53;;;;;;;4.60;2.80;;;;;;;18.61;55.30;97438.19;5032356;28;20194;-78
2023/03/09 09:01:20;;;;;;;3.50;2.80;;;;;;;18.60;55.10;97438.50;5029950;28;20268;-78
2023/03/09 09:03:49;;;;;;;4.33;2.90;;;;;;;18.65;54.79;97446.47;5033236;28;20206;-78
2023/03/09 09:06:21;;;;;;;4.30;2.93;;;;;;;18.91;54.54;97447.16;5030391;28;20231;-78
2023/03/09 09:08:50;;;;;;;4.23;2.70;;;;;;;19.08;54.41;97455.22;5028451;28;20205;-79
2023/03/09 09:11:17;;;;;;;3.73;2.70;;;;;;;19.14;54.38;97470.19;5031990;28;20851;-79
2023/03/09 09:13:44;;;;;;;5.43;3.03;;;;;;;19.05;53.79;97463.19;5027127;28;20284;-79
2023/03/09 09:16:13;;;;;;;1.93;1.60;;;;;;;18.84;54.56;97479.41;5030295;28;20274;-79
2023/03/09 09:18:41;;;;;;;2.30;1.13;;;;;;;18.29;55.05;97490.22;5031015;28;20202;-79
2023/03/09 09:21:16;;;;;;;2.63;0.70;;;;;;;18.02;55.65;97485.91;5017305;28;20208;-81
2023/03/09 09:23:43;;;;;;;1.50;0.53;;;;;;;18.11;55.42;97504.88;5045987;28;20181;-79
2023/03/09 09:26:18;;;;;;;0.57;0.40;;;;;;;17.75;56.29;97521.44;5042725;28;20194;-79
2023/03/09 09:28:44;;;;;;;0.73;0.40;;;;;;;17.82;55.50;97522.56;5042675;28;20736;-79
2023/03/09 09:31:16;;;;;;;2.63;0.37;;;;;;;17.96;55.78;97531.31;5037793;28;20190;-80
2023/03/09 09:33:44;;;;;;;2.17;0.30;;;;;;;18.05;56.11;97539.50;5043333;28;20218;-79
2023/03/09 09:36:17;;;;;;;2.30;0.50;;;;;;;18.01;56.23;97544.72;5037412;28;20182;-79
2023/03/09 09:38:48;;;;;;;9.37;1.17;;;;;;;17.63;57.65;97561.88;5033835;28;20218;-79
2023/03/09 09:41:22;;;;;;;5.73;0.60;;;;;;;17.26;59.06;97588.31;5043179;28;20182;-79
2023/03/09 09:43:55;;;;;;;2.60;0.50;;;;;;;16.93;59.53;97585.13;5036108;28;20216;-79
2023/03/09 09:46:28;;;;;;;3.30;0.43;;;;;;;16.99;59.45;97591.19;5037295;28;20249;-80
2023/03/09 09:49:01;;;;;;;1.80;0.33;;;;;;;17.12;59.99;97596.50;4997827;28;20246;-79
2023/03/09 09:51:59;;;;;;;0.73;0.30;;;;;;;16.81;60.89;97576.78;5042402;28;20249;-79
2023/03/09 09:54:36;;;;;;;0.70;0.40;;;;;;;17.31;59.93;97604.41;5042167;28;20182;-80
2023/03/09 09:57:19;;;;;;;0.97;0.30;;;;;;;17.31;59.89;97611.75;5013253;28;20223;-80
2023/03/09 09:59:57;;;;;;;0.77;0.30;;;;;;;17.83;59.86;97615.44;5019737;28;20194;-79
2023/03/09 10:02:39;;;;;;;0.83;0.30;;;;;;;17.66;59.16;97601.88;5035488;28;20186;-79
2023/03/09 10:05:27;;;;;;;0.30;0.20;;;;;;;17.53;59.12;97609.75;5034534;28;20240;-79
2023/03/09 10:07:56;;;;;;;4.43;0.50;;;;;;;17.28;59.70;97621.28;5030690;28;20647;-79
2023/03/09 10:10:27;;;;;;;0.40;0.20;;;;;;;17.45;59.38;97621.34;5031784;28;20198;-79
2023/03/09 10:12:55;;;;;;;1.03;0.20;;;;;;;17.22;59.83;97632.56;4998445;28;20652;-80
2023/03/09 10:15:32;;;;;;;2.37;0.30;;;;;;;16.75;60.85;97632.09;5024725;28;20243;-80
2023/03/09 10:18:12;;;;;;;1.60;0.30;;;;;;;17.03;60.45;97630.84;5033631;28;20237;-80
2023/03/09 10:20:43;;;;;;;0.40;0.20;;;;;;;17.24;59.85;97631.13;5038695;28;20206;-80
2023/03/09 10:23:21;;;;;;;0.30;0.30;;;;;;;17.64;59.03;97639.31;5029232;28;20670;-77
2023/03/09 10:25:52;;;;;;;1.10;0.20;;;;;;;18.00;58.61;97653.44;5039477;28;20225;-78
2023/03/09 10:28:21;;;;;;;2.00;0.30;;;;;;;18.20;57.91;97639.25;5031388;28;20685;-78
2023/03/09 10:31:04;;;;;;;1.43;0.50;;;;;;;17.89;57.25;97630.44;5030196;28;20643;-78
2023/03/09 10:33:40;;;;;;;1.07;0.30;;;;;;;17.32;58.04;97632.25;5031695;28;20193;-78
2023/03/09 10:36:25;;;;;;;0.37;0.33;;;;;;;17.87;57.53;97644.28;5030695;28;20207;-78
2023/03/09 10:38:54;;;;;;;1.10;0.30;;;;;;;17.87;57.43;97638.09;5026087;28;20677;-81
2023/03/09 10:41:22;;;;;;;2.20;0.43;;;;;;;17.67;57.59;97627.84;5033201;28;20201;-78
2023/03/09 10:43:49;;;;;;;0.37;0.30;;;;;;;17.79;56.61;97636.16;5007696;28;20199;-79
2023/03/09 10:46:18;;;;;;;3.10;0.30;;;;;;;17.27;56.86;97662.16;5034680;28;20182;-79
2023/03/09 10:48:47;;;;;;;2.80;0.90;;;;;;;17.54;55.36;97643.06;5031766;28;20205;-79
2023/03/09 10:51:29;;;;;;;1.43;0.60;;;;;;;17.57;55.09;97653.25;5033621;28;20273;-78
2023/03/09 10:54:03;;;;;;;0.40;0.30;;;;;;;17.82;54.06;97666.13;5033626;28;20193;-79
2023/03/09 10:56:30;;;;;;;0.73;0.60;;;;;;;17.76;53.87;97659.25;5019453;28;20202;-79
2023/03/09 10:59:06;;;;;;;1.73;0.40;;;;;;;17.89;53.10;97650.22;5034764;28;20715;-79
2023/03/09 11:01:42;;;;;;;3.60;0.40;;;;;;;18.02;53.41;97676.38;5035898;28;20194;-78
2023/03/09 11:04:24;;;;;;;2.00;0.50;;;;;;;17.89;52.72;97681.91;5030854;28;20183;-78
2023/03/09 11:06:55;;;;;;;3.47;0.60;;;;;;;17.35;52.11;97667.66;5039490;28;20302;-77
2023/03/09 11:09:34;;;;;;;1.50;0.60;;;;;;;17.21;51.94;97677.75;5014108;28;20226;-78
2023/03/09 11:12:21;;;;;;;9.87;1.20;;;;;;;17.14;51.69;97675.47;5031562;28;20209;-79
2023/03/09 11:15:03;;;;;;;3.93;0.50;;;;;;;16.74;50.27;97708.91;5027735;28;20217;-80
2023/03/09 11:17:44;;;;;;;1.83;0.77;;;;;;;16.85;50.90;97702.16;5013412;28;20296;-78
2023/03/09 11:20:52;;;;;;;2.27;0.57;;;;;;;16.62;51.83;97700.53;5032740;28;20205;-78
2023/03/09 11:23:27;;;;;;;1.40;0.40;;;;;;;16.82;52.24;97710.88;5021388;28;20232;-78
2023/03/09 11:26:14;;;;;;;0.67;0.47;;;;;;;16.69;53.06;97717.16;5023944;28;20232;-78
2023/03/09 11:28:45;;;;;;;1.60;0.50;;;;;;;17.04;53.00;97713.59;5002095;28;20469;-78
2023/03/09 11:31:41;;;;;;;1.27;0.60;;;;;;;17.05;53.07;97717.91;5010171;28;20211;-78
2023/03/09 11:34:26;;;;;;;3.33;0.60;;;;;;;16.85;52.42;97694.03;5031405;28;20204;-79
2023/03/09 11:37:17;;;;;;;6.13;1.10;;;;;;;16.88;51.54;97728.59;5027160;28;20193;-78
2023/03/09 11:39:59;;;;;;;4.03;1.00;;;;;;;17.00;51.34;97728.06;5032081;28;20191;-80
2023/03/09 11:42:53;;;;;;;3.07;0.57;;;;;;;17.07;51.74;97731.13;5037722;28;20194;-81
2023/03/09 11:45:22;;;;;;;0.97;0.53;;;;;;;17.32;50.55;97737.81;5035177;28;20216;-78
2023/03/09 11:47:56;;;;;;;1.00;0.60;;;;;;;17.66;50.87;97726.44;5033830;28;20687;-78
2023/03/09 11:50:52;;;;;;;1.70;0.57;;;;;;;17.66;51.13;97745.38;5020545;28;20292;-79
2023/03/09 11:54:01;;;;;;;2.37;0.80;;;;;;;17.72;51.30;97734.13;5037174;28;20749;-78
2023/03/09 11:56:34;;;;;;;3.50;0.80;;;;;;;17.40;51.56;97727.06;4952847;28;20224;-79
2023/03/09 11:59:10;;;;;;;1.97;0.70;;;;;;;17.52;51.85;97727.28;5014272;28;20234;-79